Time,TemperatureF,DewpointF,PressureIn,WindDirection,WindDirectionDegrees,WindSpeedMPH,WindSpeedGustMPH,Humidity,HourlyPrecipIn,Conditions,Clouds,dailyrainin,SoftwareType,DateUTC
2013-06-26 00:02:00,71.1,68.0,29.68,South,180,2.2,-999.0,90,-99.99,,,0.00,Acu-Link.com,2013-06-26 04:02:00,
2013-06-26 00:17:00,71.1,68.0,29.68,South,180,3.2,-999.0,90,-99.99,,,0.00,Acu-Link.com,2013-06-26 04:17:00,
2013-06-26 00:32:00,71.2,67.8,29.69,West,270,4.2,-999.0,89,-99.99,,,0.00,Acu-Link.com,2013-06-26 04:32:00,
2013-06-26 00:47:00,71.4,67.7,29.69,SSE,157,4.2,-999.0,88,-99.99,,,0.00,Acu-Link.com,2013-06-26 04:47:00,
2013-06-26 01:02:00,71.1,67.0,29.68,SW,225,7.3,-999.0,87,-99.99,,,0.00,Acu-Link.com,2013-06-26 05:02:00,
2013-06-26 01:18:00,70.0,65.3,29.68,South,180,2.7,-999.0,85,-99.99,,,0.00,Acu-Link.com,2013-06-26 05:18:00,
2013-06-26 01:33:00,69.4,64.7,29.68,SW,225,3.2,-999.0,85,-99.99,,,0.00,Acu-Link.com,2013-06-26 05:33:00,
2013-06-26 01:48:00,68.9,63.9,29.67,SW,225,3.2,-999.0,84,-99.99,,,0.00,Acu-Link.com,2013-06-26 05:48:00,
2013-06-26 02:03:00,68.4,63.7,29.65,NE,45,0.0,-999.0,85,-99.99,,,0.00,Acu-Link.com,2013-06-26 06:03:00,
2013-06-26 02:19:00,68.0,63.6,29.65,ESE,112,0.0,-999.0,86,-99.99,,,0.00,Acu-Link.com,2013-06-26 06:19:00,
2013-06-26 02:34:00,67.6,63.6,29.65,NW,315,0.0,-999.0,87,-99.99,,,0.00,Acu-Link.com,2013-06-26 06:34:00,
2013-06-26 02:49:00,67.3,63.3,29.65,NNE,22,1.7,-999.0,87,-99.99,,,0.00,Acu-Link.com,2013-06-26 06:49:00,
2013-06-26 03:04:00,67.1,63.1,29.66,NE,45,0.0,-999.0,87,-99.99,,,0.00,Acu-Link.com,2013-06-26 07:04:00,
2013-06-26 03:20:00,66.9,63.2,29.66,NNE,22,0.0,-999.0,88,-99.99,,,0.00,Acu-Link.com,2013-06-26 07:20:00,
2013-06-26 03:35:00,66.6,63.3,29.65,ESE,112,0.0,-999.0,89,-99.99,,,0.00,Acu-Link.com,2013-06-26 07:35:00,
2013-06-26 03:50:00,65.8,62.5,29.65,WNW,292,0.0,-999.0,89,-99.99,,,0.00,Acu-Link.com,2013-06-26 07:50:00,
2013-06-26 04:06:00,65.5,62.2,29.65,West,270,0.0,-999.0,89,-99.99,,,0.00,Acu-Link.com,2013-06-26 08:06:00,
2013-06-26 04:22:00,65.3,62.0,29.65,NW,315,0.0,-999.0,89,-99.99,,,0.00,Acu-Link.com,2013-06-26 08:22:00,
2013-06-26 04:37:00,64.9,61.9,29.65,WNW,292,0.0,-999.0,90,-99.99,,,0.00,Acu-Link.com,2013-06-26 08:37:00,
2013-06-26 04:52:00,64.9,61.9,29.64,WNW,292,0.0,-999.0,90,-99.99,,,0.00,Acu-Link.com,2013-06-26 08:52:00,
2013-06-26 05:07:00,64.6,61.6,29.65,WSW,247,0.0,-999.0,90,-99.99,,,0.00,Acu-Link.com,2013-06-26 09:07:00,
2013-06-26 05:22:00,64.4,61.4,29.65,SSE,157,1.7,-999.0,90,-99.99,,,0.00,Acu-Link.com,2013-06-26 09:22:00,
2013-06-26 05:38:00,64.9,62.2,29.65,South,180,2.2,-999.0,91,-99.99,,,0.00,Acu-Link.com,2013-06-26 09:38:00,
2013-06-26 05:53:00,65.1,62.4,29.65,South,180,2.2,-999.0,91,-99.99,,,0.00,Acu-Link.com,2013-06-26 09:53:00,
2013-06-26 06:08:00,64.9,62.2,29.66,SSE,157,2.7,-999.0,91,-99.99,,,0.00,Acu-Link.com,2013-06-26 10:08:00,
2013-06-26 06:23:00,64.9,62.2,29.67,South,180,2.7,-999.0,91,-99.99,,,0.00,Acu-Link.com,2013-06-26 10:23:00,
2013-06-26 06:38:00,65.8,63.1,29.67,South,180,4.7,-999.0,91,-99.99,,,0.00,Acu-Link.com,2013-06-26 10:38:00,
2013-06-26 06:54:00,66.7,64.0,29.67,South,180,3.7,-999.0,91,-99.99,,,0.00,Acu-Link.com,2013-06-26 10:54:00,
2013-06-26 07:09:00,66.9,63.9,29.67,South,180,4.7,-999.0,90,-99.99,,,0.00,Acu-Link.com,2013-06-26 11:09:00,
2013-06-26 07:24:00,67.3,64.3,29.68,South,180,3.2,-999.0,90,-99.99,,,0.00,Acu-Link.com,2013-06-26 11:24:00,
2013-06-26 07:39:00,68.0,64.3,29.68,South,180,3.7,-999.0,88,-99.99,,,0.00,Acu-Link.com,2013-06-26 11:39:00,
2013-06-26 07:54:00,68.9,64.5,29.67,South,180,2.7,-999.0,86,-99.99,,,0.00,Acu-Link.com,2013-06-26 11:54:00,
2013-06-26 08:09:00,69.4,64.7,29.67,South,180,4.7,-999.0,85,-99.99,,,0.00,Acu-Link.com,2013-06-26 12:09:00,
2013-06-26 08:24:00,70.5,65.1,29.67,South,180,3.7,-999.0,83,-99.99,,,0.00,Acu-Link.com,2013-06-26 12:24:00,
2013-06-26 08:40:00,71.6,64.7,29.67,SSE,157,4.2,-999.0,79,-99.99,,,0.00,Acu-Link.com,2013-06-26 12:40:00,
2013-06-26 08:55:00,72.9,64.9,29.67,South,180,4.2,-999.0,76,-99.99,,,0.00,Acu-Link.com,2013-06-26 12:55:00,
2013-06-26 09:10:00,72.9,65.3,29.67,South,180,4.7,-999.0,77,-99.99,,,0.00,Acu-Link.com,2013-06-26 13:10:00,
2013-06-26 09:26:00,72.9,65.3,29.69,South,180,3.7,-999.0,77,-99.99,,,0.00,Acu-Link.com,2013-06-26 13:26:00,
2013-06-26 09:41:00,73.8,65.4,29.68,South,180,4.2,-999.0,75,-99.99,,,0.00,Acu-Link.com,2013-06-26 13:41:00,
2013-06-26 09:56:00,73.2,64.8,29.67,South,180,5.3,-999.0,75,-99.99,,,0.00,Acu-Link.com,2013-06-26 13:56:00,
2013-06-26 10:11:00,74.7,65.5,29.67,SSE,157,3.7,-999.0,73,-99.99,,,0.00,Acu-Link.com,2013-06-26 14:11:00,
2013-06-26 10:27:00,74.8,65.6,29.66,West,270,4.2,-999.0,73,-99.99,,,0.00,Acu-Link.com,2013-06-26 14:27:00,
2013-06-26 10:42:00,74.3,65.1,29.66,WSW,247,3.7,-999.0,73,-99.99,,,0.00,Acu-Link.com,2013-06-26 14:42:00,
2013-06-26 10:57:00,75.9,65.4,29.66,WNW,292,2.2,-999.0,70,-99.99,,,0.00,Acu-Link.com,2013-06-26 14:57:00,
2013-06-26 11:12:00,76.8,65.8,29.66,SSE,157,2.7,-999.0,69,-99.99,,,0.00,Acu-Link.com,2013-06-26 15:12:00,
2013-06-26 11:28:00,76.6,65.2,29.66,SSE,157,3.2,-999.0,68,-99.99,,,0.00,Acu-Link.com,2013-06-26 15:28:00,
2013-06-26 11:43:00,77.4,66.0,29.67,SSE,157,3.2,-999.0,68,-99.99,,,0.00,Acu-Link.com,2013-06-26 15:43:00,
2013-06-26 11:58:00,79.0,64.4,29.67,South,180,2.7,-999.0,61,-99.99,,,0.00,Acu-Link.com,2013-06-26 15:58:00,
2013-06-26 12:13:00,79.2,64.6,29.67,SSE,157,2.2,-999.0,61,-99.99,,,0.00,Acu-Link.com,2013-06-26 16:13:00,
2013-06-26 12:29:00,80.1,64.9,29.68,South,180,3.2,-999.0,60,-99.99,,,0.00,Acu-Link.com,2013-06-26 16:29:00,
2013-06-26 12:44:00,79.3,65.1,29.68,SW,225,2.2,-999.0,62,-99.99,,,0.00,Acu-Link.com,2013-06-26 16:44:00,
2013-06-26 12:59:00,79.9,64.8,29.68,South,180,1.7,-999.0,60,-99.99,,,0.00,Acu-Link.com,2013-06-26 16:59:00,
2013-06-26 13:15:00,79.9,64.8,29.67,SSE,157,3.7,-999.0,60,-99.99,,,0.00,Acu-Link.com,2013-06-26 17:15:00,
2013-06-26 13:30:00,80.8,65.6,29.68,South,180,3.2,-999.0,60,-99.99,,,0.00,Acu-Link.com,2013-06-26 17:30:00,
2013-06-26 13:45:00,81.0,64.8,29.67,South,180,2.7,-999.0,58,-99.99,,,0.00,Acu-Link.com,2013-06-26 17:45:00,
2013-06-26 14:00:00,81.9,64.6,29.66,West,270,2.2,-999.0,56,-99.99,,,0.00,Acu-Link.com,2013-06-26 18:00:00,
2013-06-26 14:16:00,81.9,66.1,29.66,WSW,247,3.2,-999.0,59,-99.99,,,0.00,Acu-Link.com,2013-06-26 18:16:00,
2013-06-26 14:31:00,84.0,66.1,29.65,South,180,0.0,-999.0,55,-99.99,,,0.00,Acu-Link.com,2013-06-26 18:31:00,
2013-06-26 14:46:00,84.6,66.1,29.64,ESE,112,1.1,-999.0,54,-99.99,,,0.00,Acu-Link.com,2013-06-26 18:46:00,
2013-06-26 15:01:00,85.6,64.8,29.64,SE,135,2.7,-999.0,50,-99.99,,,0.00,Acu-Link.com,2013-06-26 19:01:00,
2013-06-26 15:16:00,84.9,64.7,29.63,SSE,157,0.0,-999.0,51,-99.99,,,0.00,Acu-Link.com,2013-06-26 19:16:00,
2013-06-26 15:32:00,86.2,65.9,29.64,SE,135,0.0,-999.0,51,-99.99,,,0.00,Acu-Link.com,2013-06-26 19:32:00,
2013-06-26 15:47:00,86.4,64.9,29.64,South,180,2.2,-999.0,49,-99.99,,,0.00,Acu-Link.com,2013-06-26 19:47:00,
2013-06-26 16:02:00,87.6,66.0,29.63,SE,135,0.0,-999.0,49,-99.99,,,0.00,Acu-Link.com,2013-06-26 20:02:00,
2013-06-26 16:18:00,86.0,65.2,29.62,ESE,112,0.0,-999.0,50,-99.99,,,0.00,Acu-Link.com,2013-06-26 20:18:00,
2013-06-26 16:33:00,86.4,64.4,29.62,South,180,0.0,-999.0,48,-99.99,,,0.00,Acu-Link.com,2013-06-26 20:33:00,
2013-06-26 16:48:00,86.4,62.5,29.61,NE,45,1.7,-999.0,45,-99.99,,,0.00,Acu-Link.com,2013-06-26 20:48:00,
2013-06-26 17:03:00,86.4,64.9,29.61,ESE,112,0.0,-999.0,49,-99.99,,,0.00,Acu-Link.com,2013-06-26 21:03:00,
2013-06-26 17:19:00,90.1,65.2,29.60,ESE,112,2.2,-999.0,44,-99.99,,,0.00,Acu-Link.com,2013-06-26 21:19:00,
2013-06-26 17:34:00,90.9,65.3,29.61,NE,45,1.7,-999.0,43,-99.99,,,0.00,Acu-Link.com,2013-06-26 21:34:00,
2013-06-26 17:49:00,88.3,64.9,29.60,SSE,157,4.2,-999.0,46,-99.99,,,0.00,Acu-Link.com,2013-06-26 21:49:00,
2013-06-26 18:05:00,83.5,64.5,29.60,SE,135,2.2,-999.0,53,-99.99,,,0.00,Acu-Link.com,2013-06-26 22:05:00,
2013-06-26 18:20:00,85.3,65.1,29.59,ESE,112,4.2,-999.0,51,-99.99,,,0.00,Acu-Link.com,2013-06-26 22:20:00,
2013-06-26 18:35:00,83.7,64.2,29.59,East,90,3.2,-999.0,52,-99.99,,,0.00,Acu-Link.com,2013-06-26 22:35:00,
2013-06-26 18:50:00,84.0,65.0,29.58,SSE,157,2.2,-999.0,53,-99.99,,,0.00,Acu-Link.com,2013-06-26 22:50:00,
2013-06-26 19:06:00,86.0,65.7,29.59,SSE,157,0.0,-999.0,51,-99.99,,,0.00,Acu-Link.com,2013-06-26 23:06:00,
2013-06-26 19:21:00,83.7,64.7,29.58,ESE,112,1.1,-999.0,53,-99.99,,,0.00,Acu-Link.com,2013-06-26 23:21:00,
2013-06-26 19:36:00,82.2,64.9,29.59,SSE,157,2.7,-999.0,56,-99.99,,,0.00,Acu-Link.com,2013-06-26 23:36:00,
2013-06-26 19:51:00,79.7,65.5,29.60,South,180,3.2,-999.0,62,-99.99,,,0.00,Acu-Link.com,2013-06-26 23:51:00,
2013-06-26 20:07:00,80.1,65.9,29.58,ENE,67,2.2,-999.0,62,-99.99,,,0.00,Acu-Link.com,2013-06-27 00:07:00,
2013-06-26 20:22:00,79.2,65.5,29.61,ESE,112,1.7,-999.0,63,-99.99,,,0.00,Acu-Link.com,2013-06-27 00:22:00,
2013-06-26 20:37:00,78.8,65.6,29.59,ESE,112,0.0,-999.0,64,-99.99,,,0.00,Acu-Link.com,2013-06-27 00:37:00,
2013-06-26 20:53:00,78.1,65.8,29.59,East,90,0.0,-999.0,66,-99.99,,,0.00,Acu-Link.com,2013-06-27 00:53:00,
2013-06-26 21:08:00,77.4,66.0,29.59,ESE,112,0.0,-999.0,68,-99.99,,,0.00,Acu-Link.com,2013-06-27 01:08:00,
2013-06-26 21:23:00,77.0,66.0,29.59,SE,135,0.0,-999.0,69,-99.99,,,0.00,Acu-Link.com,2013-06-27 01:23:00,
2013-06-26 21:39:00,76.5,66.4,29.59,SSE,157,0.0,-999.0,71,-99.99,,,0.00,Acu-Link.com,2013-06-27 01:39:00,
2013-06-26 21:54:00,76.3,66.2,29.59,SSE,157,1.7,-999.0,71,-99.99,,,0.00,Acu-Link.com,2013-06-27 01:54:00,
2013-06-26 22:09:00,75.6,66.3,29.59,South,180,0.0,-999.0,73,-99.99,,,0.00,Acu-Link.com,2013-06-27 02:09:00,
2013-06-26 22:25:00,74.5,66.0,29.59,NNE,22,0.0,-999.0,75,-99.99,,,0.00,Acu-Link.com,2013-06-27 02:25:00,
2013-06-26 22:40:00,73.4,66.5,29.59,NNE,22,0.0,-999.0,79,-99.99,,,0.00,Acu-Link.com,2013-06-27 02:40:00,
2013-06-26 22:55:00,72.3,66.1,29.59,NW,315,1.7,-999.0,81,-99.99,,,0.00,Acu-Link.com,2013-06-27 02:55:00,
2013-06-26 23:11:00,72.1,65.9,29.58,NNE,22,1.1,-999.0,81,-99.99,,,0.00,Acu-Link.com,2013-06-27 03:11:00,
2013-06-26 23:26:00,72.1,66.3,29.58,WSW,247,0.0,-999.0,82,-99.99,,,0.00,Acu-Link.com,2013-06-27 03:26:00,
2013-06-26 23:41:00,72.3,66.1,29.58,NNE,22,1.7,-999.0,81,-99.99,,,0.00,Acu-Link.com,2013-06-27 03:41:00,
2013-06-26 23:57:00,72.1,66.3,29.58,WNW,292,0.0,-999.0,82,-99.99,,,0.00,Acu-Link.com,2013-06-27 03:57:00,